sensor_id;sensor_type;location;lat;lon;timestamp;pressure;altitude;pressure_sealevel;temperature;humidity
68169;BME280;54981;50.206;15.978;2022-09-13T00:01:11;98764.38;;;10.98;100.00
68169;BME280;54981;50.206;15.978;2022-09-13T00:03:37;98764.13;;;11.03;100.00
68169;BME280;54981;50.206;15.978;2022-09-13T00:06:07;98765.66;;;11.07;100.00
68169;BME280;54981;50.206;15.978;2022-09-13T00:08:32;98755.84;;;11.07;100.00
68169;BME280;54981;50.206;15.978;2022-09-13T00:10:58;98763.78;;;11.09;100.00
68169;BME280;54981;50.206;15.978;2022-09-13T00:13:23;98762.50;;;11.00;100.00
68169;BME280;54981;50.206;15.978;2022-09-13T00:15:49;98754.38;;;10.87;100.00
68169;BME280;54981;50.206;15.978;2022-09-13T00:18:15;98765.78;;;10.75;100.00
68169;BME280;54981;50.206;15.978;2022-09-13T00:20:41;98748.38;;;10.84;100.00
68169;BME280;54981;50.206;15.978;2022-09-13T00:23:07;98749.44;;;10.96;100.00
68169;BME280;54981;50.206;15.978;2022-09-13T00:25:32;98750.59;;;11.06;100.00
68169;BME280;54981;50.206;15.978;2022-09-13T00:27:58;98743.97;;;11.13;100.00
68169;BME280;54981;50.206;15.978;2022-09-13T00:30:23;98738.28;;;11.19;100.00
68169;BME280;54981;50.206;15.978;2022-09-13T00:32:48;98746.06;;;11.22;100.00
68169;BME280;54981;50.206;15.978;2022-09-13T00:35:14;98745.03;;;11.25;100.00
68169;BME280;54981;50.206;15.978;2022-09-13T00:37:39;98743.41;;;11.22;100.00
68169;BME280;54981;50.206;15.978;2022-09-13T00:40:05;98734.00;;;11.31;100.00
68169;BME280;54981;50.206;15.978;2022-09-13T00:42:31;98732.84;;;11.35;100.00
68169;BME280;54981;50.206;15.978;2022-09-13T00:47:36;98737.44;;;11.33;100.00
68169;BME280;54981;50.206;15.978;2022-09-13T00:53:10;98728.00;;;11.42;100.00
68169;BME280;54981;50.206;15.978;2022-09-13T00:55:43;98726.56;;;11.50;100.00
68169;BME280;54981;50.206;15.978;2022-09-13T00:58:19;98722.94;;;11.51;100.00
68169;BME280;54981;50.206;15.978;2022-09-13T01:00:46;98713.81;;;11.56;100.00
68169;BME280;54981;50.206;15.978;2022-09-13T01:03:13;98717.34;;;11.56;100.00
68169;BME280;54981;50.206;15.978;2022-09-13T01:05:43;98725.72;;;11.64;100.00
68169;BME280;54981;50.206;15.978;2022-09-13T01:08:11;98717.81;;;11.63;100.00
68169;BME280;54981;50.206;15.978;2022-09-13T01:10:46;98721.53;;;11.60;100.00
68169;BME280;54981;50.206;15.978;2022-09-13T01:13:24;98725.03;;;11.61;100.00
68169;BME280;54981;50.206;15.978;2022-09-13T01:15:50;98719.44;;;11.65;100.00
68169;BME280;54981;50.206;15.978;2022-09-13T01:18:17;98715.50;;;11.57;100.00
68169;BME280;54981;50.206;15.978;2022-09-13T01:26:42;98706.84;;;11.67;100.00
68169;BME280;54981;50.206;15.978;2022-09-13T01:35:42;98704.19;;;11.53;100.00
68169;BME280;54981;50.206;15.978;2022-09-13T01:46:17;98692.00;;;11.35;100.00
68169;BME280;54981;50.206;15.978;2022-09-13T01:48:54;98691.25;;;11.33;100.00
68169;BME280;54981;50.206;15.978;2022-09-13T01:51:27;98694.50;;;11.23;100.00
68169;BME280;54981;50.206;15.978;2022-09-13T01:54:12;98694.97;;;11.30;100.00
68169;BME280;54981;50.206;15.978;2022-09-13T01:56:57;98697.53;;;11.32;100.00
68169;BME280;54981;50.206;15.978;2022-09-13T02:02:34;98684.41;;;11.28;100.00
68169;BME280;54981;50.206;15.978;2022-09-13T02:05:28;98684.78;;;11.37;100.00
68169;BME280;54981;50.206;15.978;2022-09-13T02:07:59;98677.84;;;11.34;100.00
68169;BME280;54981;50.206;15.978;2022-09-13T02:10:33;98673.34;;;11.35;100.00
68169;BME280;54981;50.206;15.978;2022-09-13T02:13:04;98674.69;;;11.27;100.00
68169;BME280;54981;50.206;15.978;2022-09-13T02:15:35;98675.53;;;11.28;100.00
68169;BME280;54981;50.206;15.978;2022-09-13T02:18:12;98665.34;;;11.20;100.00
68169;BME280;54981;50.206;15.978;2022-09-13T02:20:42;98667.25;;;11.18;100.00
68169;BME280;54981;50.206;15.978;2022-09-13T02:23:17;98661.19;;;11.16;100.00
68169;BME280;54981;50.206;15.978;2022-09-13T02:25:46;98648.91;;;11.14;100.00
68169;BME280;54981;50.206;15.978;2022-09-13T02:28:16;98659.09;;;11.07;100.00
68169;BME280;54981;50.206;15.978;2022-09-13T02:30:46;98656.59;;;11.04;100.00
68169;BME280;54981;50.206;15.978;2022-09-13T02:33:17;98650.69;;;10.99;100.00
68169;BME280;54981;50.206;15.978;2022-09-13T02:35:58;98658.59;;;11.00;100.00
68169;BME280;54981;50.206;15.978;2022-09-13T02:38:42;98658.59;;;11.00;100.00
68169;BME280;54981;50.206;15.978;2022-09-13T02:41:16;98655.84;;;11.02;100.00
68169;BME280;54981;50.206;15.978;2022-09-13T02:43:50;98652.31;;;11.01;100.00
68169;BME280;54981;50.206;15.978;2022-09-13T02:46:20;98649.66;;;11.01;100.00
68169;BME280;54981;50.206;15.978;2022-09-13T02:49:08;98646.03;;;11.02;100.00
68169;BME280;54981;50.206;15.978;2022-09-13T02:51:48;98639.09;;;11.00;100.00
68169;BME280;54981;50.206;15.978;2022-09-13T02:57:14;98637.94;;;11.04;100.00
68169;BME280;54981;50.206;15.978;2022-09-13T02:59:45;98632.44;;;11.07;100.00
68169;BME280;54981;50.206;15.978;2022-09-13T03:02:13;98637.09;;;11.03;100.00
68169;BME280;54981;50.206;15.978;2022-09-13T03:04:40;98633.66;;;11.01;100.00
68169;BME280;54981;50.206;15.978;2022-09-13T03:07:09;98632.81;;;11.01;100.00
68169;BME280;54981;50.206;15.978;2022-09-13T03:09:35;98632.81;;;11.01;100.00
68169;BME280;54981;50.206;15.978;2022-09-13T03:12:17;98630.06;;;11.02;100.00
68169;BME280;54981;50.206;15.978;2022-09-13T03:15:27;98622.84;;;11.04;100.00
68169;BME280;54981;50.206;15.978;2022-09-13T03:20:55;98622.34;;;10.98;100.00
68169;BME280;54981;50.206;15.978;2022-09-13T03:23:44;98607.50;;;10.94;100.00
68169;BME280;54981;50.206;15.978;2022-09-13T03:26:24;98613.69;;;10.94;100.00
68169;BME280;54981;50.206;15.978;2022-09-13T03:29:04;98608.66;;;10.90;100.00
68169;BME280;54981;50.206;15.978;2022-09-13T03:34:37;98608.53;;;10.77;100.00
68169;BME280;54981;50.206;15.978;2022-09-13T03:39:46;98605.19;;;10.44;100.00
68169;BME280;54981;50.206;15.978;2022-09-13T03:42:39;98600.97;;;10.40;100.00
68169;BME280;54981;50.206;15.978;2022-09-13T03:45:06;98600.97;;;10.40;100.00
68169;BME280;54981;50.206;15.978;2022-09-13T03:47:35;98590.34;;;10.40;100.00
68169;BME280;54981;50.206;15.978;2022-09-13T03:50:02;98591.44;;;10.36;100.00
68169;BME280;54981;50.206;15.978;2022-09-13T03:52:28;98591.44;;;10.36;100.00
68169;BME280;54981;50.206;15.978;2022-09-13T03:54:53;98587.84;;;10.37;100.00
68169;BME280;54981;50.206;15.978;2022-09-13T03:57:20;98590.59;;;10.36;100.00
68169;BME280;54981;50.206;15.978;2022-09-13T03:59:54;98598.84;;;10.31;100.00
68169;BME280;54981;50.206;15.978;2022-09-13T04:02:22;98586.06;;;10.22;100.00
68169;BME280;54981;50.206;15.978;2022-09-13T04:04:47;98603.19;;;10.18;100.00
68169;BME280;54981;50.206;15.978;2022-09-13T04:07:16;98605.25;;;10.13;100.00
68169;BME280;54981;50.206;15.978;2022-09-13T04:09:42;98601.22;;;10.06;100.00
68169;BME280;54981;50.206;15.978;2022-09-13T04:12:08;98599.31;;;10.08;100.00
68169;BME280;54981;50.206;15.978;2022-09-13T04:14:38;98604.75;;;10.06;100.00
68169;BME280;54981;50.206;15.978;2022-09-13T04:17:04;98599.44;;;10.06;100.00
68169;BME280;54981;50.206;15.978;2022-09-13T04:19:30;98602.94;;;10.07;100.00
68169;BME280;54981;50.206;15.978;2022-09-13T04:21:56;98609.97;;;10.08;100.00
68169;BME280;54981;50.206;15.978;2022-09-13T04:24:27;98618.03;;;10.06;100.00
68169;BME280;54981;50.206;15.978;2022-09-13T04:26:54;98617.00;;;10.09;100.00
68169;BME280;54981;50.206;15.978;2022-09-13T04:29:21;98616.25;;;10.07;100.00
68169;BME280;54981;50.206;15.978;2022-09-13T04:31:48;98614.34;;;10.09;100.00
68169;BME280;54981;50.206;15.978;2022-09-13T04:34:14;98617.84;;;10.09;100.00
68169;BME280;54981;50.206;15.978;2022-09-13T04:36:40;98614.94;;;10.14;100.00
68169;BME280;54981;50.206;15.978;2022-09-13T04:39:05;98619.41;;;10.13;100.00
68169;BME280;54981;50.206;15.978;2022-09-13T04:41:31;98620.25;;;10.14;100.00
68169;BME280;54981;50.206;15.978;2022-09-13T04:43:57;98630.97;;;10.12;100.00
68169;BME280;54981;50.206;15.978;2022-09-13T04:46:23;98632.44;;;10.18;100.00
68169;BME280;54981;50.206;15.978;2022-09-13T04:48:49;98623.50;;;10.19;100.00
68169;BME280;54981;50.206;15.978;2022-09-13T04:51:15;98633.09;;;10.21;100.00
68169;BME280;54981;50.206;15.978;2022-09-13T04:53:42;98632.25;;;10.21;100.00
68169;BME280;54981;50.206;15.978;2022-09-13T04:56:07;98635.56;;;10.24;100.00
68169;BME280;54981;50.206;15.978;2022-09-13T04:58:33;98633.03;;;10.23;100.00
68169;BME280;54981;50.206;15.978;2022-09-13T05:01:03;98635.69;;;10.23;100.00
68169;BME280;54981;50.206;15.978;2022-09-13T05:03:30;98636.31;;;10.28;100.00
68169;BME280;54981;50.206;15.978;2022-09-13T05:06:06;98637.72;;;10.34;100.00
68169;BME280;54981;50.206;15.978;2022-09-13T05:08:33;98629.66;;;10.35;100.00
68169;BME280;54981;50.206;15.978;2022-09-13T05:10:58;98627.41;;;10.43;100.00
68169;BME280;54981;50.206;15.978;2022-09-13T05:13:24;98627.13;;;10.48;100.00
68169;BME280;54981;50.206;15.978;2022-09-13T05:15:57;98618.97;;;10.51;100.00
68169;BME280;54981;50.206;15.978;2022-09-13T05:18:26;98624.78;;;10.58;100.00
68169;BME280;54981;50.206;15.978;2022-09-13T05:20:59;98620.72;;;10.66;100.00
68169;BME280;54981;50.206;15.978;2022-09-13T05:23:26;98624.63;;;10.75;100.00
68169;BME280;54981;50.206;15.978;2022-09-13T05:26:03;98613.38;;;10.84;100.00
68169;BME280;54981;50.206;15.978;2022-09-13T05:28:30;98607.34;;;10.97;100.00
68169;BME280;54981;50.206;15.978;2022-09-13T05:31:02;98610.16;;;11.08;100.00
68169;BME280;54981;50.206;15.978;2022-09-13T05:33:32;98614.16;;;11.15;100.00
68169;BME280;54981;50.206;15.978;2022-09-13T05:35:57;98603.13;;;11.21;100.00
68169;BME280;54981;50.206;15.978;2022-09-13T05:38:23;98611.69;;;11.26;100.00
68169;BME280;54981;50.206;15.978;2022-09-13T05:40:53;98604.91;;;11.35;100.00
68169;BME280;54981;50.206;15.978;2022-09-13T05:43:21;98616.03;;;11.42;100.00
68169;BME280;54981;50.206;15.978;2022-09-13T05:45:47;98605.84;;;11.48;100.00
68169;BME280;54981;50.206;15.978;2022-09-13T05:48:12;98599.66;;;11.48;100.00
68169;BME280;54981;50.206;15.978;2022-09-13T05:50:37;98589.75;;;11.50;100.00
68169;BME280;54981;50.206;15.978;2022-09-13T05:53:03;98589.84;;;11.48;100.00
68169;BME280;54981;50.206;15.978;2022-09-13T05:55:29;98595.66;;;11.55;100.00
68169;BME280;54981;50.206;15.978;2022-09-13T05:57:55;98586.28;;;11.62;100.00
68169;BME280;54981;50.206;15.978;2022-09-13T06:00:20;98590.72;;;11.76;100.00
68169;BME280;54981;50.206;15.978;2022-09-13T06:02:45;98595.00;;;11.93;100.00
68169;BME280;54981;50.206;15.978;2022-09-13T06:05:11;98595.63;;;11.97;100.00
68169;BME280;54981;50.206;15.978;2022-09-13T06:07:39;98582.84;;;12.14;100.00
68169;BME280;54981;50.206;15.978;2022-09-13T06:10:09;98583.75;;;12.28;100.00
68169;BME280;54981;50.206;15.978;2022-09-13T06:12:34;98586.34;;;12.29;100.00
68169;BME280;54981;50.206;15.978;2022-09-13T06:15:05;98582.41;;;12.61;100.00
68169;BME280;54981;50.206;15.978;2022-09-13T06:17:31;98575.38;;;12.85;100.00
68169;BME280;54981;50.206;15.978;2022-09-13T06:19:56;98586.03;;;13.11;100.00
68169;BME280;54981;50.206;15.978;2022-09-13T06:22:22;98588.91;;;13.20;100.00
68169;BME280;54981;50.206;15.978;2022-09-13T06:24:47;98592.75;;;13.29;100.00
68169;BME280;54981;50.206;15.978;2022-09-13T06:27:13;98589.97;;;13.31;100.00
68169;BME280;54981;50.206;15.978;2022-09-13T06:29:38;98592.00;;;13.27;100.00
68169;BME280;54981;50.206;15.978;2022-09-13T06:32:03;98585.91;;;13.38;100.00
68169;BME280;54981;50.206;15.978;2022-09-13T06:34:30;98580.81;;;13.59;99.35
68169;BME280;54981;50.206;15.978;2022-09-13T06:36:56;98582.84;;;13.55;99.15
68169;BME280;54981;50.206;15.978;2022-09-13T06:39:21;98584.53;;;13.56;99.42
68169;BME280;54981;50.206;15.978;2022-09-13T06:41:46;98581.84;;;13.69;99.42
68169;BME280;54981;50.206;15.978;2022-09-13T06:44:12;98583.53;;;13.70;98.64
68169;BME280;54981;50.206;15.978;2022-09-13T06:46:37;98581.00;;;13.93;98.03
68169;BME280;54981;50.206;15.978;2022-09-13T06:49:05;98572.41;;;14.00;96.76
68169;BME280;54981;50.206;15.978;2022-09-13T06:51:32;98571.56;;;14.11;96.92
68169;BME280;54981;50.206;15.978;2022-09-13T06:53:59;98565.69;;;14.30;95.31
68169;BME280;54981;50.206;15.978;2022-09-13T06:56:27;98571.56;;;14.46;95.11
68169;BME280;54981;50.206;15.978;2022-09-13T06:58:57;98559.66;;;14.51;96.24
68169;BME280;54981;50.206;15.978;2022-09-13T07:01:32;98564.81;;;14.76;94.72
68169;BME280;54981;50.206;15.978;2022-09-13T07:06:36;98566.31;;;15.14;92.32
68169;BME280;54981;50.206;15.978;2022-09-13T07:09:03;98567.63;;;15.31;93.02
68169;BME280;54981;50.206;15.978;2022-09-13T07:11:32;98562.50;;;15.39;92.76
68169;BME280;54981;50.206;15.978;2022-09-13T07:13:58;98566.63;;;15.54;90.08
68169;BME280;54981;50.206;15.978;2022-09-13T07:16:26;98567.59;;;15.76;90.26
68169;BME280;54981;50.206;15.978;2022-09-13T07:18:55;98555.81;;;16.00;88.13
68169;BME280;54981;50.206;15.978;2022-09-13T07:21:21;98559.75;;;15.84;88.89
68169;BME280;54981;50.206;15.978;2022-09-13T07:23:48;98557.16;;;15.94;88.99
68169;BME280;54981;50.206;15.978;2022-09-13T07:26:13;98560.38;;;16.09;87.16
68169;BME280;54981;50.206;15.978;2022-09-13T07:28:44;98559.44;;;16.31;87.53
68169;BME280;54981;50.206;15.978;2022-09-13T07:31:17;98554.78;;;16.33;85.13
68169;BME280;54981;50.206;15.978;2022-09-13T07:33:45;98555.44;;;16.46;85.50
68169;BME280;54981;50.206;15.978;2022-09-13T07:36:11;98553.50;;;16.69;84.37
68169;BME280;54981;50.206;15.978;2022-09-13T07:38:39;98551.69;;;16.58;85.38
68169;BME280;54981;50.206;15.978;2022-09-13T07:41:05;98549.59;;;16.83;85.08
68169;BME280;54981;50.206;15.978;2022-09-13T07:43:33;98552.47;;;17.22;85.21
68169;BME280;54981;50.206;15.978;2022-09-13T07:46:04;98559.22;;;17.47;80.58
68169;BME280;54981;50.206;15.978;2022-09-13T07:48:31;98546.34;;;17.60;80.49
68169;BME280;54981;50.206;15.978;2022-09-13T07:50:58;98550.91;;;17.70;79.42
68169;BME280;54981;50.206;15.978;2022-09-13T07:53:24;98556.94;;;17.42;80.23
68169;BME280;54981;50.206;15.978;2022-09-13T07:55:50;98548.38;;;17.78;78.77
68169;BME280;54981;50.206;15.978;2022-09-13T07:58:15;98550.41;;;17.95;76.37
68169;BME280;54981;50.206;15.978;2022-09-13T08:00:40;98550.00;;;18.00;76.49
68169;BME280;54981;50.206;15.978;2022-09-13T08:03:06;98558.34;;;18.06;78.32
68169;BME280;54981;50.206;15.978;2022-09-13T08:05:38;98549.81;;;18.11;75.74
68169;BME280;54981;50.206;15.978;2022-09-13T08:08:03;98553.22;;;17.94;76.51
68169;BME280;54981;50.206;15.978;2022-09-13T08:10:28;98547.06;;;17.62;78.17
68169;BME280;54981;50.206;15.978;2022-09-13T08:12:53;98549.34;;;17.77;77.75
68169;BME280;54981;50.206;15.978;2022-09-13T08:15:19;98547.50;;;17.77;77.15
68169;BME280;54981;50.206;15.978;2022-09-13T08:17:44;98532.38;;;17.86;76.23
68169;BME280;54981;50.206;15.978;2022-09-13T08:20:09;98541.31;;;17.86;79.65
68169;BME280;54981;50.206;15.978;2022-09-13T08:22:35;98543.59;;;17.91;79.55
68169;BME280;54981;50.206;15.978;2022-09-13T08:25:00;98549.41;;;18.35;75.41
68169;BME280;54981;50.206;15.978;2022-09-13T08:27:27;98553.78;;;18.56;76.04
68169;BME280;54981;50.206;15.978;2022-09-13T08:29:52;98556.59;;;18.83;73.62
68169;BME280;54981;50.206;15.978;2022-09-13T08:32:18;98555.59;;;18.74;75.77
68169;BME280;54981;50.206;15.978;2022-09-13T08:34:43;98555.22;;;18.50;76.49
68169;BME280;54981;50.206;15.978;2022-09-13T08:37:08;98555.25;;;18.30;78.21
68169;BME280;54981;50.206;15.978;2022-09-13T08:39:34;98557.41;;;18.93;73.84
68169;BME280;54981;50.206;15.978;2022-09-13T08:42:14;98548.84;;;19.35;73.86
68169;BME280;54981;50.206;15.978;2022-09-13T08:44:46;98550.16;;;19.59;71.47
68169;BME280;54981;50.206;15.978;2022-09-13T08:50:30;98547.75;;;19.28;72.17
68169;BME280;54981;50.206;15.978;2022-09-13T08:53:24;98543.97;;;19.11;73.42
68169;BME280;54981;50.206;15.978;2022-09-13T08:56:09;98538.91;;;19.08;77.03
68169;BME280;54981;50.206;15.978;2022-09-13T08:58:47;98536.06;;;19.37;75.32
68169;BME280;54981;50.206;15.978;2022-09-13T09:01:52;98536.31;;;18.79;75.37
68169;BME280;54981;50.206;15.978;2022-09-13T09:12:16;98525.09;;;20.38;68.03
68169;BME280;54981;50.206;15.978;2022-09-13T09:14:46;98523.50;;;20.72;67.11
68169;BME280;54981;50.206;15.978;2022-09-13T09:17:22;98513.53;;;20.72;66.71
68169;BME280;54981;50.206;15.978;2022-09-13T09:20:01;98510.91;;;21.23;66.65
68169;BME280;54981;50.206;15.978;2022-09-13T09:22:32;98513.28;;;21.26;63.75
68169;BME280;54981;50.206;15.978;2022-09-13T09:24:59;98510.38;;;21.45;64.56
68169;BME280;54981;50.206;15.978;2022-09-13T09:27:24;98523.59;;;21.48;62.47
68169;BME280;54981;50.206;15.978;2022-09-13T09:29:51;98511.03;;;21.47;64.91
68169;BME280;54981;50.206;15.978;2022-09-13T09:38:06;98516.25;;;19.19;76.19
68169;BME280;54981;50.206;15.978;2022-09-13T09:40:36;98518.00;;;19.10;75.26
68169;BME280;54981;50.206;15.978;2022-09-13T09:43:13;98519.00;;;19.09;75.59
68169;BME280;54981;50.206;15.978;2022-09-13T09:45:41;98519.13;;;19.18;73.17
68169;BME280;54981;50.206;15.978;2022-09-13T09:48:14;98515.53;;;19.27;73.39
68169;BME280;54981;50.206;15.978;2022-09-13T09:50:48;98515.38;;;19.74;73.93
68169;BME280;54981;50.206;15.978;2022-09-13T09:53:21;98501.56;;;20.13;71.97
68169;BME280;54981;50.206;15.978;2022-09-13T09:55:59;98492.03;;;20.45;71.32
68169;BME280;54981;50.206;15.978;2022-09-13T09:58:37;98485.53;;;19.75;74.48
68169;BME280;54981;50.206;15.978;2022-09-13T10:01:03;98469.72;;;19.53;75.72
68169;BME280;54981;50.206;15.978;2022-09-13T10:03:32;98460.47;;;19.37;74.73
68169;BME280;54981;50.206;15.978;2022-09-13T10:06:12;98466.16;;;19.34;73.03
68169;BME280;54981;50.206;15.978;2022-09-13T10:08:40;98463.91;;;19.75;70.40
68169;BME280;54981;50.206;15.978;2022-09-13T10:11:06;98457.03;;;19.81;71.97
68169;BME280;54981;50.206;15.978;2022-09-13T10:13:33;98461.47;;;20.08;69.86
68169;BME280;54981;50.206;15.978;2022-09-13T10:16:03;98459.03;;;19.97;71.17
68169;BME280;54981;50.206;15.978;2022-09-13T10:18:34;98447.69;;;20.11;71.39
68169;BME280;54981;50.206;15.978;2022-09-13T10:23:26;98437.09;;;20.18;69.68
68169;BME280;54981;50.206;15.978;2022-09-13T10:26:03;98428.47;;;20.67;69.80
68169;BME280;54981;50.206;15.978;2022-09-13T10:28:40;98440.09;;;21.01;68.61
68169;BME280;54981;50.206;15.978;2022-09-13T10:31:09;98442.28;;;21.40;65.64
68169;BME280;54981;50.206;15.978;2022-09-13T10:33:40;98422.19;;;21.59;65.19
68169;BME280;54981;50.206;15.978;2022-09-13T10:36:35;98422.00;;;21.69;63.83
68169;BME280;54981;50.206;15.978;2022-09-13T10:39:04;98429.16;;;21.70;64.58
68169;BME280;54981;50.206;15.978;2022-09-13T10:41:32;98416.09;;;21.65;63.30
68169;BME280;54981;50.206;15.978;2022-09-13T10:44:03;98413.88;;;21.53;63.51
68169;BME280;54981;50.206;15.978;2022-09-13T10:46:33;98417.59;;;21.52;65.32
68169;BME280;54981;50.206;15.978;2022-09-13T10:49:00;98407.53;;;21.27;63.47
68169;BME280;54981;50.206;15.978;2022-09-13T10:54:06;98416.56;;;21.44;65.06
68169;BME280;54981;50.206;15.978;2022-09-13T10:56:31;98407.72;;;21.34;64.52
68169;BME280;54981;50.206;15.978;2022-09-13T10:59:34;98408.72;;;21.33;65.64
68169;BME280;54981;50.206;15.978;2022-09-13T11:05:16;98403.94;;;21.19;65.70
68169;BME280;54981;50.206;15.978;2022-09-13T11:10:36;98406.66;;;21.11;65.64
68169;BME280;54981;50.206;15.978;2022-09-13T11:21:51;98402.97;;;21.28;67.25
68169;BME280;54981;50.206;15.978;2022-09-13T11:37:49;98372.81;;;21.23;64.32
68169;BME280;54981;50.206;15.978;2022-09-13T11:51:50;98358.78;;;21.36;65.44
68169;BME280;54981;50.206;15.978;2022-09-13T11:57:06;98363.97;;;21.04;68.60
68169;BME280;54981;50.206;15.978;2022-09-13T11:59:39;98367.38;;;21.06;68.14
68169;BME280;54981;50.206;15.978;2022-09-13T12:02:17;98365.28;;;20.92;67.30
68169;BME280;54981;50.206;15.978;2022-09-13T12:04:50;98357.84;;;20.86;68.01
68169;BME280;54981;50.206;15.978;2022-09-13T12:07:30;98353.06;;;20.72;69.19
68169;BME280;54981;50.206;15.978;2022-09-13T12:10:03;98353.00;;;20.55;69.91
68169;BME280;54981;50.206;15.978;2022-09-13T12:12:32;98355.78;;;20.72;70.49
68169;BME280;54981;50.206;15.978;2022-09-13T12:15:03;98352.88;;;20.73;69.23
68169;BME280;54981;50.206;15.978;2022-09-13T12:20:03;98352.72;;;20.75;72.30
68169;BME280;54981;50.206;15.978;2022-09-13T12:22:32;98347.38;;;20.83;70.09
68169;BME280;54981;50.206;15.978;2022-09-13T12:25:02;98336.41;;;20.93;68.95
68169;BME280;54981;50.206;15.978;2022-09-13T12:27:39;98323.75;;;21.10;68.68
68169;BME280;54981;50.206;15.978;2022-09-13T12:30:18;98323.72;;;21.01;68.25
68169;BME280;54981;50.206;15.978;2022-09-13T12:32:45;98325.59;;;21.01;68.97
68169;BME280;54981;50.206;15.978;2022-09-13T12:35:29;98316.78;;;20.99;70.39
68169;BME280;54981;50.206;15.978;2022-09-13T12:54:37;98291.84;;;20.71;69.43
68169;BME280;54981;50.206;15.978;2022-09-13T13:02:55;98285.81;;;20.93;72.10
68169;BME280;54981;50.206;15.978;2022-09-13T13:05:36;98288.97;;;20.80;73.28
68169;BME280;54981;50.206;15.978;2022-09-13T13:08:25;98289.66;;;20.82;71.33
68169;BME280;54981;50.206;15.978;2022-09-13T13:11:10;98291.72;;;20.97;73.27
68169;BME280;54981;50.206;15.978;2022-09-13T13:13:38;98289.41;;;21.18;73.43
68169;BME280;54981;50.206;15.978;2022-09-13T13:16:25;98284.19;;;21.58;69.42
68169;BME280;54981;50.206;15.978;2022-09-13T13:18:56;98282.94;;;21.93;69.01
68169;BME280;54981;50.206;15.978;2022-09-13T13:31:40;98274.69;;;21.70;66.92
68169;BME280;54981;50.206;15.978;2022-09-13T13:39:11;98268.94;;;21.24;73.44
68169;BME280;54981;50.206;15.978;2022-09-13T13:41:52;98261.81;;;21.23;70.78
68169;BME280;54981;50.206;15.978;2022-09-13T13:46:45;98272.69;;;21.39;69.94
68169;BME280;54981;50.206;15.978;2022-09-13T13:58:21;98251.00;;;21.56;69.00
68169;BME280;54981;50.206;15.978;2022-09-13T14:00:29;98247.09;;;21.75;67.33
68169;BME280;54981;50.206;15.978;2022-09-13T14:08:58;98244.22;;;21.35;67.77
68169;BME280;54981;50.206;15.978;2022-09-13T14:14:32;98242.91;;;21.39;68.52
68169;BME280;54981;50.206;15.978;2022-09-13T14:17:21;98239.47;;;21.13;72.95
68169;BME280;54981;50.206;15.978;2022-09-13T14:19:58;98230.53;;;21.12;73.03
68169;BME280;54981;50.206;15.978;2022-09-13T14:22:25;98231.69;;;21.18;72.41
68169;BME280;54981;50.206;15.978;2022-09-13T14:24:54;98230.66;;;21.19;72.07
68169;BME280;54981;50.206;15.978;2022-09-13T14:27:28;98227.97;;;21.19;71.82
68169;BME280;54981;50.206;15.978;2022-09-13T14:29:56;98224.41;;;21.18;69.18
68169;BME280;54981;50.206;15.978;2022-09-13T14:32:25;98225.44;;;21.09;72.16
68169;BME280;54981;50.206;15.978;2022-09-13T14:34:55;98224.91;;;21.14;72.40
68169;BME280;54981;50.206;15.978;2022-09-13T14:37:34;98219.53;;;21.22;70.12
68169;BME280;54981;50.206;15.978;2022-09-13T14:42:25;98210.88;;;21.43;70.87
68169;BME280;54981;50.206;15.978;2022-09-13T14:44:51;98211.22;;;21.56;69.53
68169;BME280;54981;50.206;15.978;2022-09-13T14:47:30;98212.09;;;21.48;71.22
68169;BME280;54981;50.206;15.978;2022-09-13T14:50:02;98211.53;;;21.69;68.47
68169;BME280;54981;50.206;15.978;2022-09-13T14:52:42;98216.97;;;21.69;70.32
68169;BME280;54981;50.206;15.978;2022-09-13T14:55:17;98212.25;;;21.47;69.26
68169;BME280;54981;50.206;15.978;2022-09-13T14:57:53;98212.72;;;21.59;68.30
68169;BME280;54981;50.206;15.978;2022-09-13T15:00:21;98208.34;;;21.49;66.60
68169;BME280;54981;50.206;15.978;2022-09-13T15:03:02;98210.06;;;21.51;69.56
68169;BME280;54981;50.206;15.978;2022-09-13T15:05:31;98210.53;;;21.54;68.22
68169;BME280;54981;50.206;15.978;2022-09-13T15:07:57;98211.03;;;21.66;67.27
68169;BME280;54981;50.206;15.978;2022-09-13T15:10:26;98203.53;;;21.76;66.72
68169;BME280;54981;50.206;15.978;2022-09-13T15:17:57;98198.84;;;21.70;67.70
68169;BME280;54981;50.206;15.978;2022-09-13T15:20:24;98198.63;;;21.72;67.22
68169;BME280;54981;50.206;15.978;2022-09-13T15:22:51;98198.47;;;21.73;67.86
68169;BME280;54981;50.206;15.978;2022-09-13T15:25:28;98197.31;;;21.67;68.28
68169;BME280;54981;50.206;15.978;2022-09-13T15:27:56;98192.03;;;21.74;68.82
68169;BME280;54981;50.206;15.978;2022-09-13T15:30:38;98202.22;;;21.72;69.93
68169;BME280;54981;50.206;15.978;2022-09-13T15:33:18;98208.63;;;21.71;68.20
68169;BME280;54981;50.206;15.978;2022-09-13T15:35:45;98209.00;;;21.68;70.70
68169;BME280;54981;50.206;15.978;2022-09-13T15:38:28;98204.75;;;21.65;68.63
68169;BME280;54981;50.206;15.978;2022-09-13T15:41:26;98208.81;;;21.61;69.29
68169;BME280;54981;50.206;15.978;2022-09-13T15:43:49;98200.88;;;21.60;69.69
68169;BME280;54981;50.206;15.978;2022-09-13T15:46:16;98204.09;;;21.63;69.24
68169;BME280;54981;50.206;15.978;2022-09-13T15:48:56;98204.59;;;21.59;71.87
68169;BME280;54981;50.206;15.978;2022-09-13T15:51:22;98198.88;;;21.54;74.55
68169;BME280;54981;50.206;15.978;2022-09-13T15:53:48;98200.72;;;21.53;72.32
68169;BME280;54981;50.206;15.978;2022-09-13T15:56:20;98201.06;;;21.50;71.85
68169;BME280;54981;50.206;15.978;2022-09-13T15:58:46;98199.38;;;21.49;71.25